Time,TemperatureF,DewpointF,PressureIn,WindDirection,WindDirectionDegrees,WindSpeedMPH,WindSpeedGustMPH,Humidity,HourlyPrecipIn,Conditions,Clouds,dailyrainin,SoftwareType,DateUTC
2013-07-15 00:01:00,82.0,-99.9,30.23,SSW,203,2.0,4.0,-999,-99.99,,,-99.99,,2013-07-15 04:01:00,
2013-07-15 00:12:00,82.0,-99.9,30.23,SW,220,2.0,4.0,-999,-99.99,,,-99.99,,2013-07-15 04:12:00,
2013-07-15 00:33:00,82.0,-99.9,30.23,SSW,210,4.0,6.0,-999,-99.99,,,-99.99,,2013-07-15 04:33:00,
2013-07-15 00:42:00,81.0,-99.9,30.23,SSW,213,5.0,6.0,-999,-99.99,,,-99.99,,2013-07-15 04:42:00,
2013-07-15 00:54:00,81.0,-99.9,30.23,SW,227,3.0,6.0,-999,-99.99,,,-99.99,,2013-07-15 04:54:00,
2013-07-15 01:02:00,81.0,-99.9,30.23,SW,220,2.0,6.0,-999,-99.99,,,-99.99,,2013-07-15 05:02:00,
2013-07-15 01:12:00,81.0,-99.9,30.23,SSW,213,4.0,6.0,-999,-99.99,,,-99.99,,2013-07-15 05:12:00,
2013-07-15 01:22:00,80.0,-99.9,30.23,WSW,252,4.0,9.0,-999,-99.99,,,-99.99,,2013-07-15 05:22:00,
2013-07-15 01:32:00,81.0,-99.9,30.23,WSW,252,3.0,7.0,-999,-99.99,,,-99.99,,2013-07-15 05:32:00,
2013-07-15 01:43:00,81.0,-99.9,30.23,WSW,248,6.0,12.0,-999,-99.99,,,-99.99,,2013-07-15 05:43:00,
2013-07-15 01:53:00,81.0,-99.9,30.23,WSW,250,7.0,13.0,-999,-99.99,,,-99.99,,2013-07-15 05:53:00,
2013-07-15 02:02:00,80.0,-99.9,30.23,WSW,257,6.0,11.0,-999,-99.99,,,-99.99,,2013-07-15 06:02:00,
2013-07-15 02:12:00,80.0,-99.9,30.23,WSW,247,6.0,11.0,-999,-99.99,,,-99.99,,2013-07-15 06:12:00,
2013-07-15 02:22:00,79.0,-99.9,30.23,SW,225,4.0,8.0,-999,-99.99,,,-99.99,,2013-07-15 06:22:00,
2013-07-15 02:32:00,79.0,-99.9,30.23,SW,227,3.0,9.0,-999,-99.99,,,-99.99,,2013-07-15 06:32:00,
2013-07-15 02:42:00,79.0,-99.9,30.23,WSW,238,4.0,8.0,-999,-99.99,,,-99.99,,2013-07-15 06:42:00,
2013-07-15 02:53:00,79.0,-99.9,30.22,SW,233,2.0,4.0,-999,-99.99,,,-99.99,,2013-07-15 06:53:00,
2013-07-15 03:01:00,78.0,-99.9,30.22,SW,223,3.0,8.0,-999,-99.99,,,-99.99,,2013-07-15 07:01:00,
2013-07-15 03:11:00,78.0,-99.9,30.22,SW,228,4.0,8.0,-999,-99.99,,,-99.99,,2013-07-15 07:11:00,
2013-07-15 03:33:00,78.0,-99.9,30.22,WSW,241,4.0,8.0,-999,-99.99,,,-99.99,,2013-07-15 07:33:00,
2013-07-15 03:44:00,78.0,-99.9,30.22,WSW,240,4.0,9.0,-999,-99.99,,,-99.99,,2013-07-15 07:44:00,
2013-07-15 03:53:00,78.0,-99.9,30.22,WSW,248,5.0,7.0,-999,-99.99,,,-99.99,,2013-07-15 07:53:00,
2013-07-15 04:02:00,78.0,-99.9,30.22,WSW,250,6.0,11.0,-999,-99.99,,,-99.99,,2013-07-15 08:02:00,
2013-07-15 04:22:00,78.0,-99.9,30.22,WSW,253,6.0,11.0,-999,-99.99,,,-99.99,,2013-07-15 08:22:00,
2013-07-15 04:32:00,78.0,-99.9,30.22,WSW,249,6.0,10.0,-999,-99.99,,,-99.99,,2013-07-15 08:32:00,
2013-07-15 04:44:00,78.0,-99.9,30.22,WSW,249,5.0,10.0,-999,-99.99,,,-99.99,,2013-07-15 08:44:00,
2013-07-15 04:53:00,78.0,-99.9,30.22,WSW,246,7.0,10.0,-999,-99.99,,,-99.99,,2013-07-15 08:53:00,
2013-07-15 05:02:00,78.0,-99.9,30.22,WSW,239,6.0,12.0,-999,-99.99,,,-99.99,,2013-07-15 09:02:00,
2013-07-15 05:12:00,77.0,-99.9,30.22,WSW,248,4.0,8.0,-999,-99.99,,,-99.99,,2013-07-15 09:12:00,
2013-07-15 05:22:00,77.0,-99.9,30.22,WSW,243,4.0,7.0,-999,-99.99,,,-99.99,,2013-07-15 09:22:00,
2013-07-15 05:32:00,77.0,-99.9,30.22,WSW,250,4.0,8.0,-999,-99.99,,,-99.99,,2013-07-15 09:32:00,
2013-07-15 05:43:00,77.0,-99.9,30.22,WSW,244,5.0,9.0,-999,-99.99,,,-99.99,,2013-07-15 09:43:00,
2013-07-15 05:53:00,77.0,-99.9,30.22,SW,226,3.0,6.0,-999,-99.99,,,-99.99,,2013-07-15 09:53:00,
2013-07-15 06:02:00,77.0,-99.9,30.22,SW,236,2.0,7.0,-999,-99.99,,,-99.99,,2013-07-15 10:02:00,
2013-07-15 06:11:00,77.0,-99.9,30.22,SW,229,2.0,6.0,-999,-99.99,,,-99.99,,2013-07-15 10:11:00,
2013-07-15 06:32:00,77.0,-99.9,30.22,SW,225,2.0,4.0,-999,-99.99,,,-99.99,,2013-07-15 10:32:00,
2013-07-15 06:43:00,77.0,-99.9,30.23,SW,229,1.0,3.0,-999,-99.99,,,-99.99,,2013-07-15 10:43:00,
2013-07-15 06:53:00,77.0,-99.9,30.23,SW,214,1.0,3.0,-999,-99.99,,,-99.99,,2013-07-15 10:53:00,
2013-07-15 07:02:00,78.0,-99.9,30.23,WSW,240,3.0,7.0,-999,-99.99,,,-99.99,,2013-07-15 11:02:00,
2013-07-15 07:11:00,78.0,-99.9,30.23,WSW,244,4.0,7.0,-999,-99.99,,,-99.99,,2013-07-15 11:11:00,
2013-07-15 07:22:00,79.0,-99.9,30.23,WSW,252,2.0,6.0,-999,-99.99,,,-99.99,,2013-07-15 11:22:00,
2013-07-15 07:32:00,79.0,-99.9,30.23,West,261,3.0,4.0,-999,-99.99,,,-99.99,,2013-07-15 11:32:00,
2013-07-15 07:42:00,79.0,-99.9,30.23,WSW,248,5.0,7.0,-999,-99.99,,,-99.99,,2013-07-15 11:42:00,
2013-07-15 07:52:00,80.0,-99.9,30.23,WSW,253,4.0,7.0,-999,-99.99,,,-99.99,,2013-07-15 11:52:00,
2013-07-15 08:01:00,80.0,-99.9,30.23,WSW,255,2.0,4.0,-999,-99.99,,,-99.99,,2013-07-15 12:01:00,
2013-07-15 08:11:00,81.0,-99.9,30.23,WSW,255,4.0,7.0,-999,-99.99,,,-99.99,,2013-07-15 12:11:00,
2013-07-15 08:22:00,82.0,-99.9,30.23,West,268,4.0,6.0,-999,-99.99,,,-99.99,,2013-07-15 12:22:00,
2013-07-15 08:33:00,82.0,-99.9,30.23,West,268,5.0,6.0,-999,-99.99,,,-99.99,,2013-07-15 12:33:00,
2013-07-15 08:42:00,82.0,-99.9,30.23,WSW,249,4.0,9.0,-999,-99.99,,,-99.99,,2013-07-15 12:42:00,
2013-07-15 08:53:00,83.0,-99.9,30.23,West,262,7.0,11.0,-999,-99.99,,,-99.99,,2013-07-15 12:53:00,
2013-07-15 09:02:00,83.0,-99.9,30.23,West,263,5.0,8.0,-999,-99.99,,,-99.99,,2013-07-15 13:02:00,
2013-07-15 09:11:00,84.0,-99.9,30.23,West,266,6.0,12.0,-999,-99.99,,,-99.99,,2013-07-15 13:11:00,
2013-07-15 09:43:00,85.0,-99.9,30.22,WNW,291,8.0,11.0,-999,-99.99,,,-99.99,,2013-07-15 13:43:00,
2013-07-15 10:02:00,85.0,-99.9,30.22,NW,306,5.0,8.0,-999,-99.99,,,-99.99,,2013-07-15 14:02:00,
2013-07-15 10:33:00,86.0,-99.9,30.21,NW,309,5.0,7.0,-999,-99.99,,,-99.99,,2013-07-15 14:33:00,
2013-07-15 11:02:00,86.0,-99.9,30.21,WNW,300,3.0,5.0,-999,-99.99,,,-99.99,,2013-07-15 15:02:00,
2013-07-15 11:42:00,87.0,-99.9,30.20,NW,314,5.0,6.0,-999,-99.99,,,-99.99,,2013-07-15 15:42:00,
2013-07-15 11:50:00,88.0,-99.9,30.19,NW,320,5.0,6.0,-999,-99.99,,,-99.99,,2013-07-15 15:50:00,
2013-07-15 12:08:00,86.0,-99.9,30.19,NW,322,6.0,7.0,-999,-99.99,,,-99.99,,2013-07-15 16:08:00,
2013-07-15 12:33:00,87.0,-99.9,30.19,NW,314,5.0,6.0,-999,-99.99,,,-99.99,,2013-07-15 16:33:00,
2013-07-15 12:50:00,89.0,-99.9,30.19,NW,322,4.0,4.0,-999,-99.99,,,-99.99,,2013-07-15 16:50:00,
2013-07-15 13:13:00,89.0,-99.9,30.18,NW,321,10.0,16.0,-999,-99.99,,,-99.99,,2013-07-15 17:13:00,
2013-07-15 13:23:00,91.0,-99.9,30.18,WNW,292,7.0,11.0,-999,-99.99,,,-99.99,,2013-07-15 17:23:00,
2013-07-15 13:37:00,89.0,-99.9,30.17,NW,320,4.0,5.0,-999,-99.99,,,-99.99,,2013-07-15 17:37:00,
2013-07-15 14:45:00,90.0,-99.9,30.15,NNW,337,11.0,13.0,-999,-99.99,,,-99.99,,2013-07-15 18:45:00,
2013-07-15 14:59:00,89.0,-99.9,30.15,North,349,10.0,11.0,-999,-99.99,,,-99.99,,2013-07-15 18:59:00,
2013-07-15 15:05:00,90.0,-99.9,30.15,North,356,6.0,9.0,-999,-99.99,,,-99.99,,2013-07-15 19:05:00,
2013-07-15 15:12:00,90.0,-99.9,30.15,North,356,6.0,9.0,-999,-99.99,,,-99.99,,2013-07-15 19:12:00,
2013-07-15 16:07:00,89.0,-99.9,30.14,NW,323,9.0,13.0,-999,-99.99,,,-99.99,,2013-07-15 20:07:00,
2013-07-15 16:37:00,90.0,-99.9,30.13,NW,320,10.0,11.0,-999,-99.99,,,-99.99,,2013-07-15 20:37:00,
2013-07-15 17:00:00,92.0,-99.9,30.12,NW,321,9.0,11.0,-999,-99.99,,,-99.99,,2013-07-15 21:00:00,
2013-07-15 17:40:00,90.0,-99.9,30.12,North,352,13.0,16.0,-999,-99.99,,,-99.99,,2013-07-15 21:40:00,
2013-07-15 17:48:00,91.0,-99.9,30.12,NNW,334,8.0,10.0,-999,-99.99,,,-99.99,,2013-07-15 21:48:00,
2013-07-15 18:02:00,90.0,-99.9,30.11,North,350,11.0,14.0,-999,-99.99,,,-99.99,,2013-07-15 22:02:00,
2013-07-15 18:22:00,91.0,-99.9,30.11,North,7,14.0,18.0,-999,-99.99,,,-99.99,,2013-07-15 22:22:00,
2013-07-15 18:36:00,90.0,-99.9,30.11,North,355,14.0,19.0,-999,-99.99,,,-99.99,,2013-07-15 22:36:00,
2013-07-15 18:44:00,90.0,-99.9,30.11,NNW,342,14.0,16.0,-999,-99.99,,,-99.99,,2013-07-15 22:44:00,
2013-07-15 18:54:00,90.0,-99.9,30.11,NW,315,12.0,17.0,-999,-99.99,,,-99.99,,2013-07-15 22:54:00,
2013-07-15 19:07:00,89.0,-99.9,30.11,NNW,329,11.0,14.0,-999,-99.99,,,-99.99,,2013-07-15 23:07:00,
2013-07-15 19:40:00,90.0,-99.9,30.11,NW,326,15.0,17.0,-999,-99.99,,,-99.99,,2013-07-15 23:40:00,
2013-07-15 19:50:00,90.0,-99.9,30.12,NW,322,12.0,14.0,-999,-99.99,,,-99.99,,2013-07-15 23:50:00,
2013-07-15 20:03:00,90.0,-99.9,30.11,North,349,11.0,12.0,-999,-99.99,,,-99.99,,2013-07-16 00:03:00,
2013-07-15 20:16:00,88.0,-99.9,30.11,NNW,328,11.0,13.0,-999,-99.99,,,-99.99,,2013-07-16 00:16:00,
2013-07-15 20:34:00,90.0,-99.9,30.11,NNW,329,10.0,12.0,-999,-99.99,,,-99.99,,2013-07-16 00:34:00,
2013-07-15 20:51:00,87.0,-99.9,30.11,NW,319,9.0,12.0,-999,-99.99,,,-99.99,,2013-07-16 00:51:00,
2013-07-15 21:11:00,87.0,-99.9,30.11,NNW,328,9.0,10.0,-999,-99.99,,,-99.99,,2013-07-16 01:11:00,
2013-07-15 21:39:00,89.0,-99.9,30.12,NNW,339,9.0,11.0,-999,-99.99,,,-99.99,,2013-07-16 01:39:00,
2013-07-15 22:07:00,88.0,-99.9,30.13,NNW,333,9.0,10.0,-999,-99.99,,,-99.99,,2013-07-16 02:07:00,
2013-07-15 22:35:00,84.0,-99.9,30.13,NW,321,5.0,5.0,-999,-99.99,,,-99.99,,2013-07-16 02:35:00,
2013-07-15 23:49:00,84.0,-99.9,30.14,NNW,327,2.0,3.0,-999,-99.99,,,-99.99,,2013-07-16 03:49:00,